createdAt,value
2022-09-28T00:00:30.894Z,49.69
2022-09-28T00:01:30.938Z,47.71
2022-09-28T00:02:31.018Z,49.24
2022-09-28T00:03:30.872Z,50.95
2022-09-28T00:04:30.919Z,48.66
2022-09-28T00:05:30.875Z,49.30
2022-09-28T00:06:30.865Z,47.84
2022-09-28T00:07:30.864Z,50.87
2022-09-28T00:08:30.864Z,47.74
2022-09-28T00:09:30.878Z,48.09
2022-09-28T00:10:30.856Z,50.07
2022-09-28T00:11:30.853Z,50.46
2022-09-28T00:12:30.864Z,47.47
2022-09-28T00:13:30.815Z,49.15
2022-09-28T00:14:30.856Z,47.68
2022-09-28T00:15:30.966Z,49.30
2022-09-28T00:16:30.911Z,50.73
2022-09-28T00:17:30.817Z,48.45
2022-09-28T00:18:30.803Z,49.82
2022-09-28T00:19:30.797Z,47.90
2022-09-28T00:20:30.796Z,47.23
2022-09-28T00:21:30.874Z,47.19
2022-09-28T00:22:30.816Z,47.80
2022-09-28T00:23:30.792Z,52.20
2022-09-28T00:24:30.780Z,48.26
2022-09-28T00:25:30.813Z,53.02
2022-09-28T00:26:30.771Z,46.99
2022-09-28T00:27:30.842Z,47.03
2022-09-28T00:28:30.757Z,47.95
2022-09-28T00:29:30.759Z,48.35
2022-09-28T00:30:30.747Z,47.28
2022-09-28T00:31:30.812Z,48.88
2022-09-28T00:32:30.788Z,47.30
2022-09-28T00:33:30.737Z,50.43
2022-09-28T00:34:30.728Z,51.38
2022-09-28T00:35:30.715Z,46.93
2022-09-28T00:36:30.724Z,46.75
2022-09-28T00:37:30.873Z,46.69
2022-09-28T00:38:30.700Z,46.77
2022-09-28T00:39:30.732Z,47.24
2022-09-28T00:40:30.788Z,50.36
2022-09-28T00:41:30.695Z,47.82
2022-09-28T00:42:30.702Z,46.99
2022-09-28T00:43:30.683Z,47.70
2022-09-28T00:44:30.745Z,46.99
2022-09-28T00:45:30.800Z,48.16
2022-09-28T00:46:30.657Z,48.26
2022-09-28T00:47:30.666Z,51.78
2022-09-28T00:48:30.676Z,47.03
2022-09-28T00:49:30.648Z,48.63
2022-09-28T00:50:30.655Z,48.86
2022-09-28T00:51:30.631Z,47.00
2022-09-28T00:52:30.630Z,46.91
2022-09-28T00:53:30.661Z,46.95
2022-09-28T00:54:30.621Z,48.08
2022-09-28T00:55:30.625Z,46.99
2022-09-28T00:56:30.636Z,47.65
2022-09-28T00:57:30.613Z,47.61
2022-09-28T00:58:31.637Z,47.58
2022-09-28T00:59:30.614Z,48.34
2022-09-28T01:00:30.644Z,50.93
2022-09-28T01:01:30.587Z,48.21
2022-09-28T01:02:30.643Z,49.09
2022-09-28T01:03:30.592Z,47.36
2022-09-28T01:04:30.572Z,47.39
2022-09-28T01:05:30.569Z,48.35
2022-09-28T01:06:30.590Z,47.72
2022-09-28T01:07:30.549Z,50.46
2022-09-28T01:08:30.557Z,51.84
2022-09-28T01:09:30.545Z,52.16
2022-09-28T01:10:30.708Z,52.23
2022-09-28T01:11:30.624Z,52.29
2022-09-28T01:12:30.531Z,53.13
2022-09-28T01:13:30.535Z,56.67
2022-09-28T01:14:30.525Z,53.43
2022-09-28T01:15:30.547Z,55.03
2022-09-28T01:16:30.676Z,55.17
2022-09-28T01:17:30.515Z,51.93
2022-09-28T01:18:30.498Z,53.61
2022-09-28T01:19:30.525Z,54.62
2022-09-28T01:20:30.493Z,52.94
2022-09-28T01:21:30.497Z,52.48
2022-09-28T01:22:30.497Z,52.79
2022-09-28T01:23:30.480Z,54.16
2022-09-28T01:24:30.512Z,54.88
2022-09-28T01:25:30.478Z,54.84
2022-09-28T01:26:30.537Z,53.40
2022-09-28T01:27:30.486Z,53.24
2022-09-28T01:28:30.494Z,53.23
2022-09-28T01:29:30.462Z,53.79
2022-09-28T01:30:30.455Z,52.78
2022-09-28T01:31:30.512Z,51.90
2022-09-28T01:32:30.441Z,52.48
2022-09-28T01:33:30.442Z,52.47
2022-09-28T01:34:30.449Z,53.18
2022-09-28T01:35:31.429Z,54.32
2022-09-28T01:36:30.425Z,54.84
2022-09-28T01:37:30.418Z,54.42
2022-09-28T01:38:30.413Z,54.24
2022-09-28T01:39:30.450Z,54.25
2022-09-28T01:40:30.514Z,53.35
2022-09-28T01:41:30.402Z,52.08
2022-09-28T01:42:30.389Z,54.44
2022-09-28T01:43:30.386Z,52.04
2022-09-28T01:44:30.376Z,51.89
2022-09-28T01:45:30.431Z,51.27
2022-09-28T01:46:30.364Z,52.25
2022-09-28T01:47:30.412Z,51.48
2022-09-28T01:48:30.415Z,52.63
2022-09-28T01:49:30.404Z,54.47
2022-09-28T01:50:30.372Z,54.79
2022-09-28T01:51:30.330Z,55.21
2022-09-28T01:52:30.354Z,53.51
2022-09-28T01:53:30.344Z,53.83
2022-09-28T01:54:30.370Z,52.71
2022-09-28T01:55:30.326Z,51.34
2022-09-28T01:56:30.321Z,50.49
2022-09-28T01:57:30.326Z,50.28
2022-09-28T01:58:30.330Z,52.04
2022-09-28T01:59:30.355Z,49.11
2022-09-28T02:00:30.396Z,48.96
2022-09-28T02:01:30.319Z,52.68
2022-09-28T02:02:30.351Z,49.01
2022-09-28T02:03:30.284Z,49.46
2022-09-28T02:04:30.273Z,48.73
2022-09-28T02:05:30.341Z,48.31
2022-09-28T02:06:30.274Z,51.45
2022-09-28T02:07:30.362Z,48.83
2022-09-28T02:08:30.266Z,49.08
2022-09-28T02:09:33.702Z,49.74
2022-09-28T02:10:31.295Z,49.56
2022-09-28T02:11:30.280Z,51.76
2022-09-28T02:12:30.256Z,51.97
2022-09-28T02:13:30.248Z,51.85
2022-09-28T02:14:30.296Z,53.12
2022-09-28T02:15:30.244Z,54.35
2022-09-28T02:16:30.278Z,53.49
2022-09-28T02:17:30.311Z,52.28
2022-09-28T02:18:30.251Z,52.17
2022-09-28T02:19:30.230Z,56.95
2022-09-28T02:20:30.221Z,59.55
2022-09-28T02:21:30.209Z,58.81
2022-09-28T02:22:30.203Z,58.73
2022-09-28T02:23:30.240Z,58.94
2022-09-28T02:24:30.182Z,58.32
2022-09-28T02:25:30.284Z,59.80
2022-09-28T02:26:30.169Z,55.08
2022-09-28T02:27:30.203Z,51.27
2022-09-28T02:28:30.211Z,48.93
2022-09-28T02:29:30.214Z,54.64
2022-09-28T02:30:30.187Z,49.29
2022-09-28T02:31:30.181Z,48.85
2022-09-28T02:32:30.139Z,48.28
2022-09-28T02:33:30.128Z,50.85
2022-09-28T02:34:30.154Z,53.78
2022-09-28T02:35:30.168Z,49.90
2022-09-28T02:36:30.197Z,50.08
2022-09-28T02:37:30.128Z,48.12
2022-09-28T02:38:30.107Z,48.88
2022-09-28T02:39:30.118Z,47.60
2022-09-28T02:40:30.220Z,51.03
2022-09-28T02:41:30.120Z,50.56
2022-09-28T02:42:30.140Z,49.46
2022-09-28T02:43:30.092Z,52.28
2022-09-28T02:44:30.095Z,54.30
2022-09-28T02:45:30.111Z,47.13
2022-09-28T02:46:30.111Z,47.42
2022-09-28T02:47:30.117Z,49.94
2022-09-28T02:48:43.121Z,49.35
2022-09-28T02:49:32.197Z,50.91
2022-09-28T02:50:30.052Z,49.63
2022-09-28T02:51:30.055Z,47.97
2022-09-28T02:52:30.120Z,47.64
2022-09-28T02:53:30.039Z,48.10
2022-09-28T02:54:30.030Z,53.23
2022-09-28T02:55:30.055Z,51.79
2022-09-28T02:56:30.022Z,50.49
2022-09-28T02:57:30.042Z,49.36
2022-09-28T02:58:30.061Z,48.99
2022-09-28T02:59:30.012Z,49.23
2022-09-28T03:00:30.022Z,53.29
2022-09-28T03:01:30.010Z,49.68
2022-09-28T03:02:30.045Z,50.53
2022-09-28T03:03:30.044Z,51.75
2022-09-28T03:04:29.993Z,50.17
2022-09-28T03:05:29.985Z,48.88
2022-09-28T03:06:29.989Z,50.68
2022-09-28T03:07:29.967Z,48.65
2022-09-28T03:08:30.003Z,49.29
2022-09-28T03:09:29.970Z,49.84
2022-09-28T03:10:29.968Z,48.68
2022-09-28T03:11:29.951Z,49.67
2022-09-28T03:12:30.008Z,54.44
2022-09-28T03:13:29.971Z,56.78
2022-09-28T03:14:29.985Z,56.54
2022-09-28T03:15:29.953Z,56.81
2022-09-28T03:16:30.017Z,57.78
2022-09-28T03:17:29.936Z,54.12
2022-09-28T03:18:29.938Z,53.14
2022-09-28T03:19:29.976Z,50.58
2022-09-28T03:20:29.923Z,54.75
2022-09-28T03:21:29.915Z,54.07
2022-09-28T03:22:29.899Z,55.47
2022-09-28T03:23:29.909Z,57.17
2022-09-28T03:24:29.957Z,52.80
2022-09-28T03:25:29.885Z,51.54
2022-09-28T03:26:29.896Z,52.11
2022-09-28T03:27:29.889Z,52.90
2022-09-28T03:28:29.874Z,54.09
2022-09-28T03:29:29.918Z,55.13
2022-09-28T03:30:29.875Z,52.85
2022-09-28T03:31:29.950Z,50.97
2022-09-28T03:32:29.866Z,51.57
2022-09-28T03:33:29.867Z,52.58
2022-09-28T03:34:29.846Z,53.53
2022-09-28T03:35:29.861Z,51.92
2022-09-28T03:36:30.884Z,53.34
2022-09-28T03:37:29.861Z,50.69
2022-09-28T03:38:29.850Z,54.79
2022-09-28T03:39:29.824Z,54.50
2022-09-28T03:40:29.940Z,54.03
2022-09-28T03:41:29.854Z,52.01
2022-09-28T03:42:29.845Z,52.46
2022-09-28T03:43:29.801Z,50.86
2022-09-28T03:44:29.810Z,52.07
2022-09-28T03:45:29.852Z,52.85
2022-09-28T03:46:29.848Z,53.94
2022-09-28T03:47:29.826Z,56.20
2022-09-28T03:48:32.332Z,54.75
2022-09-28T03:49:30.843Z,51.15
2022-09-28T03:50:29.790Z,54.29
2022-09-28T03:51:29.787Z,53.58
2022-09-28T03:52:29.820Z,52.57
2022-09-28T03:53:29.924Z,51.43
2022-09-28T03:54:29.789Z,54.82
2022-09-28T03:55:29.758Z,54.23
2022-09-28T03:56:29.763Z,53.10
2022-09-28T03:57:29.795Z,53.59
2022-09-28T03:58:29.733Z,54.63
2022-09-28T03:59:29.732Z,53.11
2022-09-28T04:00:29.755Z,52.84
2022-09-28T04:01:29.808Z,53.47
2022-09-28T04:02:29.778Z,53.40
2022-09-28T04:03:29.765Z,51.97
2022-09-28T04:04:29.753Z,50.43
2022-09-28T04:05:29.723Z,53.05
2022-09-28T04:06:29.782Z,53.28
2022-09-28T04:07:31.214Z,54.33
2022-09-28T04:08:30.713Z,55.01
2022-09-28T04:09:29.700Z,54.08
2022-09-28T04:10:29.685Z,54.16
2022-09-28T04:11:38.488Z,56.55
2022-09-28T04:12:31.687Z,53.33
2022-09-28T04:13:29.681Z,55.30
2022-09-28T04:14:29.662Z,53.99
2022-09-28T04:15:29.698Z,54.10
2022-09-28T04:16:29.774Z,56.33
2022-09-28T04:17:29.662Z,57.40
2022-09-28T04:18:29.687Z,55.95
2022-09-28T04:19:29.635Z,57.79
2022-09-28T04:20:29.698Z,54.51
2022-09-28T04:21:29.693Z,55.89
2022-09-28T04:22:29.671Z,56.53
2022-09-28T04:23:29.637Z,53.61
2022-09-28T04:24:29.669Z,51.72
2022-09-28T04:25:29.649Z,52.64
2022-09-28T04:26:29.613Z,55.89
2022-09-28T04:27:29.647Z,57.77
2022-09-28T04:28:29.617Z,52.42
2022-09-28T04:29:29.633Z,54.80
2022-09-28T04:30:29.607Z,55.48
2022-09-28T04:31:29.634Z,57.58
2022-09-28T04:32:29.629Z,56.52
2022-09-28T04:33:29.586Z,54.13
2022-09-28T04:34:34.502Z,54.82
2022-09-28T04:35:31.601Z,54.47
2022-09-28T04:36:29.591Z,54.92
2022-09-28T04:37:29.551Z,57.56
2022-09-28T04:38:51.385Z,56.85
2022-09-28T04:39:31.543Z,55.24
2022-09-28T04:40:29.601Z,54.46
2022-09-28T04:41:29.527Z,55.60
2022-09-28T04:42:29.572Z,55.36
2022-09-28T04:43:29.544Z,56.52
2022-09-28T04:44:29.589Z,57.32
2022-09-28T04:45:29.565Z,56.37
2022-09-28T04:46:29.540Z,57.45
2022-09-28T04:47:29.508Z,53.77
2022-09-28T04:48:29.502Z,58.05
2022-09-28T04:49:29.532Z,57.85
2022-09-28T04:50:29.569Z,57.30
2022-09-28T04:51:29.487Z,57.64
2022-09-28T04:52:29.497Z,57.93
2022-09-28T04:53:29.515Z,54.95
2022-09-28T04:54:29.500Z,53.80
2022-09-28T04:55:29.474Z,53.71
2022-09-28T04:56:29.466Z,56.58
2022-09-28T04:57:29.466Z,56.23
2022-09-28T04:58:29.493Z,58.42
2022-09-28T04:59:29.466Z,58.76
2022-09-28T05:00:29.445Z,59.41
2022-09-28T05:01:29.483Z,58.90
2022-09-28T05:02:29.509Z,60.46
2022-09-28T05:03:29.472Z,60.09
2022-09-28T05:04:29.596Z,57.22
2022-09-28T05:05:29.410Z,57.03
2022-09-28T05:06:29.425Z,55.84
2022-09-28T05:07:29.407Z,58.36
2022-09-28T05:08:29.406Z,56.52
2022-09-28T05:09:29.453Z,57.45
2022-09-28T05:10:29.474Z,52.68
2022-09-28T05:11:29.410Z,56.37
2022-09-28T05:12:29.404Z,56.72
2022-09-28T05:13:29.420Z,58.05
2022-09-28T05:14:29.383Z,56.63
2022-09-28T05:15:29.460Z,55.96
2022-09-28T05:16:29.405Z,56.11
2022-09-28T05:17:29.372Z,56.92
2022-09-28T05:18:29.386Z,54.95
2022-09-28T05:19:29.351Z,54.34
2022-09-28T05:20:29.362Z,55.07
2022-09-28T05:21:29.339Z,56.27
2022-09-28T05:22:29.339Z,55.84
2022-09-28T05:23:29.352Z,54.64
2022-09-28T05:24:29.391Z,55.54
2022-09-28T05:25:29.319Z,56.04
2022-09-28T05:26:29.333Z,57.47
2022-09-28T05:27:29.313Z,57.31
2022-09-28T05:28:29.331Z,56.43
2022-09-28T05:29:32.207Z,55.27
2022-09-28T05:30:30.338Z,57.57
2022-09-28T05:31:29.446Z,54.64
2022-09-28T05:32:29.290Z,56.40
2022-09-28T05:33:29.293Z,55.42
2022-09-28T05:34:29.317Z,55.13
2022-09-28T05:35:29.364Z,55.52
2022-09-28T05:36:29.284Z,57.47
2022-09-28T05:37:29.277Z,59.22
2022-09-28T05:38:29.294Z,57.85
2022-09-28T05:39:29.258Z,54.40
2022-09-28T05:40:29.345Z,56.33
2022-09-28T05:41:29.240Z,53.42
2022-09-28T05:42:29.256Z,54.92
2022-09-28T05:43:29.253Z,55.28
2022-09-28T05:44:29.289Z,56.99
2022-09-28T05:45:29.344Z,58.12
2022-09-28T05:46:29.265Z,57.31
2022-09-28T05:47:29.226Z,55.34
2022-09-28T05:48:29.221Z,58.10
2022-09-28T05:49:29.232Z,57.97
2022-09-28T05:50:29.246Z,54.26
2022-09-28T05:51:29.205Z,55.80
2022-09-28T05:52:29.180Z,54.60
2022-09-28T05:53:29.288Z,56.36
2022-09-28T05:54:29.245Z,55.14
2022-09-28T05:55:29.198Z,57.52
2022-09-28T05:56:29.171Z,57.49
2022-09-28T05:57:29.169Z,55.27
2022-09-28T05:58:29.186Z,57.63
2022-09-28T05:59:29.158Z,57.58
2022-09-28T06:00:29.191Z,55.48
2022-09-28T06:01:29.197Z,55.02
2022-09-28T06:02:29.254Z,53.42
2022-09-28T06:03:29.173Z,55.38
2022-09-28T06:04:29.202Z,54.95
2022-09-28T06:05:29.111Z,53.56
2022-09-28T06:06:29.161Z,55.24
2022-09-28T06:07:29.110Z,56.15
2022-09-28T06:08:29.112Z,56.89
2022-09-28T06:09:29.134Z,54.49
2022-09-28T06:10:29.165Z,52.70
2022-09-28T06:11:29.194Z,54.50
2022-09-28T06:12:29.104Z,55.88
2022-09-28T06:13:29.083Z,54.53
2022-09-28T06:14:29.102Z,54.70
2022-09-28T06:15:29.098Z,53.79
2022-09-28T06:16:29.199Z,55.72
2022-09-28T06:17:29.087Z,55.79
2022-09-28T06:18:29.053Z,54.38
2022-09-28T06:19:29.061Z,56.80
2022-09-28T06:20:29.128Z,55.06
2022-09-28T06:21:29.043Z,54.50
2022-09-28T06:22:29.049Z,54.76
2022-09-28T06:23:29.024Z,57.48
2022-09-28T06:24:29.086Z,53.55
2022-09-28T06:25:29.024Z,58.21
2022-09-28T06:26:29.101Z,56.41
2022-09-28T06:27:29.027Z,54.32
2022-09-28T06:28:28.995Z,56.92
2022-09-28T06:29:29.034Z,52.54
2022-09-28T06:30:29.145Z,49.02
2022-09-28T06:31:29.111Z,53.04
2022-09-28T06:32:29.036Z,54.74
2022-09-28T06:33:28.988Z,53.53
2022-09-28T06:34:28.984Z,54.40
2022-09-28T06:35:28.989Z,54.55
2022-09-28T06:36:28.972Z,56.86
2022-09-28T06:37:29.043Z,53.80
2022-09-28T06:38:28.962Z,54.49
2022-09-28T06:39:28.962Z,56.94
2022-09-28T06:40:29.045Z,55.69
2022-09-28T06:41:28.967Z,53.37
2022-09-28T06:42:28.944Z,55.37
2022-09-28T06:43:33.545Z,54.78
2022-09-28T06:44:30.933Z,55.89
2022-09-28T06:45:28.942Z,55.57
2022-09-28T06:46:29.004Z,54.05
2022-09-28T06:47:28.931Z,55.82
2022-09-28T06:48:29.906Z,55.71
2022-09-28T06:49:28.912Z,55.11
2022-09-28T06:50:28.908Z,54.52
2022-09-28T06:51:28.970Z,52.68
2022-09-28T06:52:28.956Z,55.47
2022-09-28T06:53:28.995Z,55.88
2022-09-28T06:54:28.885Z,54.98
2022-09-28T06:55:28.880Z,55.80
2022-09-28T06:56:32.703Z,56.58
2022-09-28T06:57:29.868Z,57.84
2022-09-28T06:58:28.911Z,56.73
2022-09-28T06:59:28.945Z,53.63
2022-09-28T07:00:28.879Z,55.28
2022-09-28T07:01:28.903Z,54.92
2022-09-28T07:02:28.868Z,52.81
2022-09-28T07:03:28.865Z,56.78
2022-09-28T07:04:28.861Z,53.70
2022-09-28T07:05:28.838Z,53.17
2022-09-28T07:06:28.833Z,55.62
2022-09-28T07:07:28.815Z,57.18
2022-09-28T07:08:28.852Z,54.94
2022-09-28T07:09:32.920Z,54.90
2022-09-28T07:10:29.863Z,55.70
2022-09-28T07:11:28.798Z,54.52
2022-09-28T07:12:28.822Z,55.62
2022-09-28T07:13:49.156Z,52.83
2022-09-28T07:14:47.018Z,54.49
2022-09-28T07:15:30.772Z,55.18
2022-09-28T07:16:46.525Z,53.22
2022-09-28T07:17:31.014Z,53.83
2022-09-28T07:18:28.887Z,54.99
2022-09-28T07:19:28.772Z,53.84
2022-09-28T07:20:28.744Z,54.32
2022-09-28T07:21:30.753Z,55.86
2022-09-28T07:22:40.587Z,54.60
2022-09-28T07:23:30.865Z,53.84
2022-09-28T07:24:28.781Z,52.33
2022-09-28T07:25:28.767Z,53.65
2022-09-28T07:26:28.772Z,53.94
2022-09-28T07:27:29.114Z,53.94
2022-09-28T07:28:29.752Z,54.80
2022-09-28T07:29:28.717Z,53.10
2022-09-28T07:30:28.709Z,54.40
2022-09-28T07:31:28.733Z,52.43
2022-09-28T07:32:28.698Z,52.86
2022-09-28T07:33:28.745Z,55.39
2022-09-28T07:34:28.680Z,52.93
2022-09-28T07:35:28.671Z,53.20
2022-09-28T07:36:28.705Z,54.60
2022-09-28T07:37:28.715Z,55.97
2022-09-28T07:38:28.666Z,55.28
2022-09-28T07:39:28.666Z,53.42
2022-09-28T07:40:28.672Z,51.96
2022-09-28T07:41:28.664Z,50.68
2022-09-28T07:42:28.683Z,51.02
2022-09-28T07:43:28.630Z,52.05
2022-09-28T07:44:28.683Z,54.84
2022-09-28T07:45:28.646Z,54.00
2022-09-28T07:46:28.615Z,55.46
2022-09-28T07:47:34.719Z,56.06
2022-09-28T07:48:30.612Z,56.42
2022-09-28T07:49:28.591Z,53.20
2022-09-28T07:50:28.623Z,55.01
2022-09-28T07:51:28.598Z,53.02
2022-09-28T07:52:28.610Z,50.17
2022-09-28T07:53:28.658Z,55.15
2022-09-28T07:54:28.575Z,51.53
2022-09-28T07:55:28.564Z,53.35
2022-09-28T07:56:28.588Z,54.09
2022-09-28T07:57:28.575Z,55.23
2022-09-28T07:58:28.639Z,54.99
2022-09-28T07:59:28.651Z,52.42
2022-09-28T08:00:33.213Z,51.85
2022-09-28T08:01:30.644Z,55.10
2022-09-28T08:02:28.605Z,52.05
2022-09-28T08:03:28.623Z,53.88
2022-09-28T08:04:28.601Z,57.94
2022-09-28T08:05:28.530Z,53.57
2022-09-28T08:06:28.624Z,54.24
2022-09-28T08:07:28.508Z,52.55
2022-09-28T08:08:28.509Z,53.70
2022-09-28T08:09:28.541Z,54.48
2022-09-28T08:10:28.503Z,54.08
2022-09-28T08:11:28.526Z,55.41
2022-09-28T08:12:28.485Z,54.73
2022-09-28T08:13:28.553Z,54.65
2022-09-28T08:14:28.523Z,53.63
2022-09-28T08:15:28.487Z,53.53
2022-09-28T08:16:28.626Z,53.62
2022-09-28T08:17:28.461Z,53.90
2022-09-28T08:18:28.466Z,52.59
2022-09-28T08:19:28.482Z,53.17
2022-09-28T08:20:28.475Z,54.67
2022-09-28T08:21:28.503Z,55.81
2022-09-28T08:22:28.431Z,53.27
2022-09-28T08:23:28.446Z,50.71
2022-09-28T08:24:28.448Z,52.10
2022-09-28T08:25:28.460Z,54.50
2022-09-28T08:26:28.504Z,55.27
2022-09-28T08:27:28.417Z,52.88
2022-09-28T08:28:28.426Z,51.51
2022-09-28T08:29:28.404Z,51.59
2022-09-28T08:30:28.472Z,52.89
2022-09-28T08:31:29.089Z,54.76
2022-09-28T08:32:28.391Z,55.77
2022-09-28T08:33:28.443Z,52.09
2022-09-28T08:34:28.412Z,51.17
2022-09-28T08:35:28.402Z,55.50
2022-09-28T08:36:28.436Z,53.93
2022-09-28T08:37:28.391Z,52.97
2022-09-28T08:38:28.406Z,53.43
2022-09-28T08:39:28.355Z,51.79
2022-09-28T08:40:28.418Z,54.90
2022-09-28T08:41:28.346Z,51.36
2022-09-28T08:42:28.351Z,55.15
2022-09-28T08:43:28.380Z,53.14
2022-09-28T08:44:29.245Z,52.40
2022-09-28T08:45:28.338Z,53.50
2022-09-28T08:46:28.375Z,52.19
2022-09-28T08:47:28.332Z,55.55
2022-09-28T08:48:28.369Z,52.75
2022-09-28T08:49:28.395Z,54.85
2022-09-28T08:50:29.279Z,53.19
2022-09-28T08:51:28.286Z,53.01
2022-09-28T08:52:28.295Z,53.02
2022-09-28T08:53:28.322Z,54.48
2022-09-28T08:54:28.290Z,54.89
2022-09-28T08:55:28.279Z,53.93
2022-09-28T08:56:28.313Z,52.72
2022-09-28T08:57:28.328Z,54.98
2022-09-28T08:58:28.267Z,55.15
2022-09-28T08:59:28.225Z,52.89
2022-09-28T09:00:28.305Z,53.23
2022-09-28T09:01:28.906Z,52.98
2022-09-28T09:02:28.396Z,57.08
2022-09-28T09:03:28.324Z,57.27
2022-09-28T09:04:28.228Z,57.19
2022-09-28T09:05:28.268Z,52.80
2022-09-28T09:06:28.243Z,52.65
2022-09-28T09:07:28.204Z,54.92
2022-09-28T09:08:28.178Z,52.39
2022-09-28T09:09:28.184Z,54.19
2022-09-28T09:10:28.205Z,54.70
2022-09-28T09:11:28.213Z,52.73
2022-09-28T09:12:28.174Z,52.07
2022-09-28T09:13:28.163Z,53.24
2022-09-28T09:14:28.186Z,52.84
2022-09-28T09:15:28.141Z,53.66
2022-09-28T09:16:28.221Z,53.60
2022-09-28T09:17:28.145Z,52.56
2022-09-28T09:18:28.189Z,53.79
2022-09-28T09:19:28.118Z,52.86
2022-09-28T09:20:28.127Z,51.97
2022-09-28T09:21:28.112Z,50.75
2022-09-28T09:22:28.131Z,52.83
2022-09-28T09:23:28.175Z,53.78
2022-09-28T09:24:28.101Z,51.77
2022-09-28T09:25:28.105Z,54.20
2022-09-28T09:26:28.092Z,54.40
2022-09-28T09:27:28.126Z,54.72
2022-09-28T09:28:28.082Z,54.26
2022-09-28T09:29:28.161Z,53.37
2022-09-28T09:30:31.019Z,52.69
2022-09-28T09:31:29.080Z,54.28
2022-09-28T09:32:28.048Z,54.87
2022-09-28T09:33:28.033Z,56.68
2022-09-28T09:34:28.039Z,54.17
2022-09-28T09:35:30.707Z,52.83
2022-09-28T09:36:29.131Z,51.33
2022-09-28T09:37:28.016Z,52.57
2022-09-28T09:38:28.004Z,56.19
2022-09-28T09:39:28.004Z,52.45
2022-09-28T09:40:28.145Z,54.03
2022-09-28T09:41:28.023Z,55.51
2022-09-28T09:42:28.011Z,53.66
2022-09-28T09:43:30.930Z,53.24
2022-09-28T09:44:29.275Z,53.43
2022-09-28T09:45:28.027Z,52.49
2022-09-28T09:46:28.024Z,54.34
2022-09-28T09:47:27.969Z,55.30
2022-09-28T09:48:27.976Z,53.22
2022-09-28T09:49:27.980Z,54.90
2022-09-28T09:50:28.001Z,54.19
2022-09-28T09:51:27.973Z,53.46
2022-09-28T09:52:27.977Z,52.61
2022-09-28T09:53:27.959Z,51.85
2022-09-28T09:54:27.918Z,53.83
2022-09-28T09:55:30.092Z,54.05
2022-09-28T09:56:28.914Z,52.77
2022-09-28T09:57:27.920Z,53.44
2022-09-28T09:58:27.936Z,53.29
2022-09-28T09:59:28.017Z,53.39
2022-09-28T10:00:27.948Z,55.39
2022-09-28T10:01:27.907Z,54.66
2022-09-28T10:02:27.932Z,53.06
2022-09-28T10:03:27.877Z,51.97
2022-09-28T10:04:27.850Z,53.39
2022-09-28T10:05:27.941Z,53.82
2022-09-28T10:06:27.869Z,55.66
2022-09-28T10:07:27.833Z,54.53
2022-09-28T10:08:28.842Z,55.65
2022-09-28T10:09:27.859Z,52.97
2022-09-28T10:10:28.875Z,52.93
2022-09-28T10:11:28.801Z,50.24
2022-09-28T10:12:28.763Z,53.56
2022-09-28T10:13:27.921Z,51.35
2022-09-28T10:14:27.793Z,54.40
2022-09-28T10:15:27.826Z,53.74
2022-09-28T10:16:27.802Z,52.85
2022-09-28T10:17:27.778Z,52.58
2022-09-28T10:18:27.767Z,53.85
2022-09-28T10:19:27.763Z,52.00
2022-09-28T10:20:27.788Z,53.02
2022-09-28T10:21:27.741Z,51.16
2022-09-28T10:22:27.725Z,51.93
2022-09-28T10:23:27.726Z,50.65
2022-09-28T10:24:27.729Z,50.95
2022-09-28T10:25:27.739Z,51.47
2022-09-28T10:26:27.688Z,52.22
2022-09-28T10:27:27.781Z,50.44
2022-09-28T10:28:27.684Z,54.14
2022-09-28T10:29:27.681Z,52.07
2022-09-28T10:30:27.819Z,50.94
2022-09-28T10:31:27.728Z,52.75
2022-09-28T10:32:27.690Z,51.03
2022-09-28T10:33:27.661Z,52.98
2022-09-28T10:34:27.640Z,54.04
2022-09-28T10:35:27.631Z,51.99
2022-09-28T10:36:27.627Z,51.69
2022-09-28T10:37:27.655Z,52.98
2022-09-28T10:38:27.605Z,52.38
2022-09-28T10:39:27.600Z,53.84
2022-09-28T10:40:27.780Z,52.90
2022-09-28T10:41:27.615Z,53.94
2022-09-28T10:42:27.726Z,52.68
2022-09-28T10:43:27.614Z,53.35
2022-09-28T10:44:27.605Z,52.36
2022-09-28T10:45:27.637Z,52.03
2022-09-28T10:46:27.671Z,53.65
2022-09-28T10:47:27.562Z,54.68
2022-09-28T10:48:27.548Z,54.03
2022-09-28T10:49:27.544Z,52.10
2022-09-28T10:50:27.586Z,55.65
2022-09-28T10:51:27.546Z,52.59
2022-09-28T10:52:27.523Z,54.55
2022-09-28T10:53:27.530Z,52.79
2022-09-28T10:54:27.585Z,52.93
2022-09-28T10:55:27.506Z,53.97
2022-09-28T10:56:27.499Z,53.66
2022-09-28T10:57:27.585Z,54.25
2022-09-28T10:58:27.481Z,55.44
2022-09-28T10:59:27.543Z,50.96
2022-09-28T11:00:27.479Z,53.61
2022-09-28T11:01:27.508Z,53.87
2022-09-28T11:02:27.686Z,51.01
2022-09-28T11:03:27.452Z,53.44
2022-09-28T11:04:27.472Z,52.31
2022-09-28T11:05:27.496Z,51.89
2022-09-28T11:06:27.440Z,51.10
2022-09-28T11:07:27.411Z,53.27
2022-09-28T11:08:27.408Z,53.61
2022-09-28T11:09:30.518Z,53.55
2022-09-28T11:10:28.405Z,52.31
2022-09-28T11:11:27.395Z,53.77
2022-09-28T11:12:27.439Z,52.31
2022-09-28T11:13:27.473Z,53.23
2022-09-28T11:14:27.366Z,53.22
2022-09-28T11:15:27.406Z,54.00
2022-09-28T11:16:27.418Z,54.36
2022-09-28T11:17:27.447Z,53.75
2022-09-28T11:18:27.377Z,54.32
2022-09-28T11:19:27.349Z,53.89
2022-09-28T11:20:28.554Z,55.07
2022-09-28T11:21:28.365Z,53.55
2022-09-28T11:22:27.346Z,50.58
2022-09-28T11:23:27.302Z,50.82
2022-09-28T11:24:27.520Z,50.61
2022-09-28T11:25:27.276Z,51.67
2022-09-28T11:26:27.251Z,52.30
2022-09-28T11:27:27.329Z,51.70
2022-09-28T11:28:27.274Z,53.44
2022-09-28T11:29:27.268Z,57.78
2022-09-28T11:30:27.272Z,52.98
2022-09-28T11:31:27.231Z,51.83
2022-09-28T11:32:27.281Z,49.45
2022-09-28T11:33:27.227Z,54.75
2022-09-28T11:34:36.541Z,53.84
2022-09-28T11:35:29.291Z,53.49
2022-09-28T11:36:27.291Z,54.59
2022-09-28T11:37:27.195Z,55.16
2022-09-28T11:38:27.203Z,54.64
2022-09-28T11:39:27.168Z,53.03
2022-09-28T11:40:27.192Z,53.38
2022-09-28T11:41:27.165Z,52.03
2022-09-28T11:42:27.152Z,51.16
2022-09-28T11:43:28.154Z,55.06
2022-09-28T11:44:30.863Z,53.10
2022-09-28T11:45:29.165Z,54.91
2022-09-28T11:46:27.203Z,55.30
2022-09-28T11:47:27.115Z,53.53
2022-09-28T11:48:27.094Z,54.03
2022-09-28T11:49:27.093Z,54.57
2022-09-28T11:50:27.091Z,54.63
2022-09-28T11:51:27.067Z,52.82
2022-09-28T11:52:27.089Z,53.90
2022-09-28T11:53:27.052Z,52.04
2022-09-28T11:54:27.041Z,54.47
2022-09-28T11:55:27.556Z,54.04
2022-09-28T11:56:27.081Z,54.37
2022-09-28T11:57:27.025Z,54.55
2022-09-28T11:58:27.048Z,53.39
2022-09-28T11:59:27.010Z,56.20
2022-09-28T12:00:27.120Z,53.94
2022-09-28T12:01:26.987Z,55.87
2022-09-28T12:02:27.060Z,55.24
2022-09-28T12:03:27.134Z,56.24
2022-09-28T12:04:26.982Z,54.23
2022-09-28T12:05:26.965Z,52.11
2022-09-28T12:06:26.950Z,53.94
2022-09-28T12:07:26.965Z,55.56
2022-09-28T12:08:27.993Z,55.51
2022-09-28T12:09:26.928Z,52.26
2022-09-28T12:10:26.926Z,54.87
2022-09-28T12:11:26.928Z,61.17
2022-09-28T12:12:26.986Z,52.31
2022-09-28T12:13:26.907Z,53.17
2022-09-28T12:14:26.886Z,53.28
2022-09-28T12:15:26.892Z,52.53
2022-09-28T12:16:53.688Z,53.81
2022-09-28T12:17:28.956Z,53.09
2022-09-28T12:18:26.858Z,52.79
2022-09-28T12:19:26.893Z,51.29
2022-09-28T12:20:27.359Z,51.95
2022-09-28T12:21:26.833Z,53.59
2022-09-28T12:22:26.861Z,54.71
2022-09-28T12:23:27.024Z,54.47
2022-09-28T12:24:26.841Z,53.27
2022-09-28T12:25:26.809Z,53.90
2022-09-28T12:26:26.816Z,60.34
2022-09-28T12:27:26.811Z,59.43
2022-09-28T12:28:26.786Z,60.39
2022-09-28T12:29:26.815Z,60.21
2022-09-28T12:30:26.825Z,60.15
2022-09-28T12:31:26.769Z,60.34
2022-09-28T12:32:26.769Z,58.02
2022-09-28T12:33:26.780Z,53.53
2022-09-28T12:34:26.741Z,51.95
2022-09-28T12:35:26.807Z,51.63
2022-09-28T12:36:26.732Z,50.02
2022-09-28T12:37:26.741Z,50.86
2022-09-28T12:38:26.733Z,53.27
2022-09-28T12:39:40.653Z,51.62
2022-09-28T12:40:28.768Z,49.80
2022-09-28T12:41:26.714Z,55.00
2022-09-28T12:42:26.701Z,53.41
2022-09-28T12:43:26.724Z,54.76
2022-09-28T12:44:26.682Z,51.94
2022-09-28T12:45:26.696Z,52.35
2022-09-28T12:46:26.679Z,52.14
2022-09-28T12:47:26.705Z,53.00
2022-09-28T12:48:26.660Z,52.74
2022-09-28T12:50:52.636Z,53.62
2022-09-28T12:51:28.614Z,53.95
2022-09-28T12:52:26.752Z,54.24
2022-09-28T12:53:26.635Z,54.87